createdAt,value
2022-08-03T00:01:45.772Z,19.70
2022-08-03T00:04:14.162Z,19.66
2022-08-03T00:06:42.210Z,19.68
2022-08-03T00:09:11.904Z,19.67
2022-08-03T00:11:40.225Z,19.61
2022-08-03T00:14:09.220Z,19.61
2022-08-03T00:16:37.394Z,19.61
2022-08-03T00:19:05.472Z,19.60
2022-08-03T00:21:33.554Z,19.58
2022-08-03T00:24:01.685Z,19.53
2022-08-03T00:26:31.767Z,19.52
2022-08-03T00:28:59.835Z,19.52
2022-08-03T00:31:52.864Z,19.48
2022-08-03T00:34:15.994Z,19.48
2022-08-03T00:36:43.983Z,19.47
2022-08-03T00:39:12.016Z,19.47
2022-08-03T00:41:41.406Z,19.49
2022-08-03T00:44:09.529Z,19.51
2022-08-03T00:46:37.614Z,19.49
2022-08-03T00:49:05.831Z,19.46
2022-08-03T00:51:35.218Z,19.47
2022-08-03T00:54:03.269Z,19.45
2022-08-03T00:56:31.467Z,19.43
2022-08-03T00:59:01.482Z,19.40
2022-08-03T01:01:32.601Z,19.47
2022-08-03T01:04:01.253Z,19.43
2022-08-03T01:06:37.217Z,19.36
2022-08-03T01:09:16.287Z,19.38
2022-08-03T01:12:00.767Z,19.37
2022-08-03T01:14:38.289Z,19.36
2022-08-03T01:17:13.117Z,19.32
2022-08-03T01:19:47.871Z,19.32
2022-08-03T01:22:36.343Z,19.31
2022-08-03T01:25:11.149Z,19.29
2022-08-03T01:27:53.060Z,19.29
2022-08-03T01:30:27.366Z,19.26
2022-08-03T01:33:02.080Z,19.23
2022-08-03T01:35:38.314Z,19.21
2022-08-03T01:38:13.029Z,19.22
2022-08-03T01:40:42.754Z,19.17
2022-08-03T01:43:14.440Z,19.17
2022-08-03T01:46:04.784Z,19.18
2022-08-03T01:48:32.914Z,19.12
2022-08-03T01:51:02.012Z,19.14
2022-08-03T01:53:32.790Z,19.14
2022-08-03T01:56:01.255Z,19.08
2022-08-03T01:58:30.818Z,19.11
2022-08-03T02:01:01.582Z,19.07
2022-08-03T02:03:33.885Z,19.08
2022-08-03T02:06:59.988Z,19.10
2022-08-03T02:08:55.370Z,19.11
2022-08-03T02:11:23.655Z,19.11
2022-08-03T02:13:52.788Z,19.12
2022-08-03T02:16:23.456Z,19.15
2022-08-03T02:18:55.155Z,19.14
2022-08-03T02:21:55.567Z,19.19
2022-08-03T02:24:12.578Z,19.15
2022-08-03T02:26:45.082Z,19.12
2022-08-03T02:29:17.574Z,19.16
2022-08-03T02:31:48.669Z,19.18
2022-08-03T02:34:22.149Z,19.18
2022-08-03T02:36:52.931Z,19.19
2022-08-03T02:39:22.996Z,19.15
2022-08-03T02:41:53.477Z,19.17
2022-08-03T02:44:26.129Z,19.18
2022-08-03T02:46:59.862Z,19.17
2022-08-03T02:49:40.815Z,19.14
2022-08-03T02:52:20.996Z,19.18
2022-08-03T02:54:52.122Z,19.20
2022-08-03T02:57:22.549Z,19.16
2022-08-03T02:59:51.647Z,19.20
2022-08-03T03:02:21.171Z,19.18
2022-08-03T03:05:52.959Z,19.18
2022-08-03T03:07:51.539Z,19.20
2022-08-03T03:10:22.449Z,19.20
2022-08-03T03:12:52.226Z,19.23
2022-08-03T03:15:20.540Z,19.22
2022-08-03T03:17:50.682Z,19.23
2022-08-03T03:20:30.098Z,19.26
2022-08-03T03:23:01.089Z,19.23
2022-08-03T03:25:31.858Z,19.22
2022-08-03T03:28:00.816Z,19.21
2022-08-03T03:30:29.982Z,19.19
2022-08-03T03:32:59.239Z,19.22
2022-08-03T03:35:29.199Z,19.25
2022-08-03T03:37:58.350Z,19.27
2022-08-03T03:40:26.822Z,19.24
2022-08-03T03:42:55.259Z,19.26
2022-08-03T03:45:24.490Z,19.30
2022-08-03T03:47:52.563Z,19.26
2022-08-03T03:50:21.651Z,19.26
2022-08-03T03:52:51.070Z,19.24
2022-08-03T03:55:19.554Z,19.27
2022-08-03T03:57:47.637Z,19.22
2022-08-03T04:00:18.086Z,19.25
2022-08-03T04:02:46.773Z,19.27
2022-08-03T04:05:33.483Z,19.28
2022-08-03T04:08:24.726Z,19.32
2022-08-03T04:11:03.458Z,19.34
2022-08-03T04:13:36.360Z,19.34
2022-08-03T04:16:06.263Z,19.34
2022-08-03T04:18:37.859Z,19.32
2022-08-03T04:21:09.786Z,19.37
2022-08-03T04:23:42.640Z,19.41
2022-08-03T04:26:13.248Z,19.39
2022-08-03T04:28:44.825Z,19.41
2022-08-03T04:31:14.544Z,19.44
2022-08-03T04:33:45.161Z,19.42
2022-08-03T04:36:17.009Z,19.40
2022-08-03T04:38:56.742Z,19.44
2022-08-03T04:41:27.062Z,19.37
2022-08-03T04:43:57.493Z,19.42
2022-08-03T04:46:28.385Z,19.44
2022-08-03T04:48:58.551Z,19.45
2022-08-03T04:51:27.348Z,19.45
2022-08-03T04:53:56.699Z,19.45
2022-08-03T04:56:24.771Z,19.41
2022-08-03T04:58:52.767Z,19.46
2022-08-03T05:01:22.599Z,19.47
2022-08-03T05:03:51.591Z,19.43
2022-08-03T05:06:19.765Z,19.42
2022-08-03T05:08:53.722Z,19.47
2022-08-03T05:11:23.378Z,19.49
2022-08-03T05:13:51.494Z,19.47
2022-08-03T05:16:19.817Z,19.47
2022-08-03T05:18:48.188Z,19.51
2022-08-03T05:21:16.964Z,19.49
2022-08-03T05:23:45.631Z,19.47
2022-08-03T05:26:13.761Z,19.49
2022-08-03T05:28:50.794Z,19.55
2022-08-03T05:31:20.330Z,19.50
2022-08-03T05:33:49.117Z,19.53
2022-08-03T05:36:17.358Z,19.47
2022-08-03T05:38:45.367Z,19.44
2022-08-03T05:41:22.132Z,19.47
2022-08-03T05:43:54.543Z,19.48
2022-08-03T05:46:23.273Z,19.52
2022-08-03T05:48:51.443Z,19.55
2022-08-03T05:51:19.577Z,19.56
2022-08-03T05:53:47.698Z,19.52
2022-08-03T05:56:16.813Z,19.60
2022-08-03T05:58:46.555Z,19.64
2022-08-03T06:01:16.401Z,19.63
2022-08-03T06:03:44.524Z,19.59
2022-08-03T06:06:12.799Z,19.65
2022-08-03T06:08:41.241Z,19.67
2022-08-03T06:11:09.852Z,19.65
2022-08-03T06:13:38.537Z,19.72
2022-08-03T06:16:07.192Z,19.75
2022-08-03T06:18:37.039Z,19.75
2022-08-03T06:21:09.519Z,19.77
2022-08-03T06:23:52.752Z,19.79
2022-08-03T06:26:23.477Z,19.84
2022-08-03T06:28:53.923Z,19.85
2022-08-03T06:31:32.483Z,19.91
2022-08-03T06:34:30.462Z,19.90
2022-08-03T06:37:01.255Z,19.94
2022-08-03T06:39:29.570Z,19.97
2022-08-03T06:41:58.136Z,20.00
2022-08-03T06:44:26.225Z,20.03
2022-08-03T06:46:54.406Z,20.09
2022-08-03T06:49:24.177Z,20.08
2022-08-03T06:52:04.505Z,20.12
2022-08-03T06:54:42.089Z,20.10
2022-08-03T06:57:11.730Z,20.15
2022-08-03T07:00:09.903Z,20.15
2022-08-03T07:02:28.362Z,20.19
2022-08-03T07:04:58.418Z,20.21
2022-08-03T07:07:26.827Z,20.20
2022-08-03T07:09:57.019Z,20.28
2022-08-03T07:12:30.760Z,20.32
2022-08-03T07:15:01.681Z,20.31
2022-08-03T07:17:33.027Z,20.29
2022-08-03T07:20:04.761Z,20.34
2022-08-03T07:22:32.967Z,20.35
2022-08-03T07:25:00.986Z,20.43
2022-08-03T07:27:30.426Z,20.45
2022-08-03T07:29:59.460Z,20.56
2022-08-03T07:32:28.511Z,20.57
2022-08-03T07:35:00.546Z,20.57
2022-08-03T07:37:31.869Z,20.58
2022-08-03T07:40:00.449Z,20.56
2022-08-03T07:42:28.839Z,20.59
2022-08-03T07:44:57.516Z,20.58
2022-08-03T07:47:35.563Z,20.59
2022-08-03T07:50:06.679Z,20.67
2022-08-03T07:52:51.795Z,20.64
2022-08-03T07:55:21.224Z,20.68
2022-08-03T07:58:00.300Z,20.70
2022-08-03T08:00:28.629Z,20.74
2022-08-03T08:02:56.747Z,20.73
2022-08-03T08:05:25.229Z,20.75
2022-08-03T08:07:54.676Z,20.69
2022-08-03T08:10:22.741Z,20.76
2022-08-03T08:12:51.506Z,20.86
2022-08-03T08:15:21.853Z,20.82
2022-08-03T08:17:52.020Z,20.76
2022-08-03T08:20:27.686Z,20.75
2022-08-03T08:23:01.106Z,20.76
2022-08-03T08:25:31.650Z,20.86
2022-08-03T08:28:29.925Z,20.91
2022-08-03T08:30:51.009Z,20.91
2022-08-03T08:33:23.570Z,20.90
2022-08-03T08:35:54.356Z,20.95
2022-08-03T08:38:24.164Z,20.94
2022-08-03T08:40:55.618Z,21.00
2022-08-03T08:43:23.833Z,21.09
2022-08-03T08:45:55.388Z,21.17
2022-08-03T08:48:25.945Z,21.28
2022-08-03T08:50:55.499Z,21.34
2022-08-03T08:53:27.904Z,21.40
2022-08-03T08:56:00.973Z,21.50
2022-08-03T08:58:32.616Z,21.59
2022-08-03T09:01:00.884Z,21.68
2022-08-03T09:03:30.809Z,21.67
2022-08-03T09:06:02.346Z,21.73
2022-08-03T09:08:33.760Z,21.76
2022-08-03T09:11:02.098Z,21.76
2022-08-03T09:13:30.602Z,21.83
2022-08-03T09:16:11.739Z,21.92
2022-08-03T09:18:40.535Z,21.94
2022-08-03T09:21:37.272Z,21.98
2022-08-03T09:24:16.367Z,21.97
2022-08-03T09:26:53.849Z,21.97
2022-08-03T09:29:22.771Z,21.95
2022-08-03T09:35:54.085Z,22.14
2022-08-03T09:46:57.341Z,22.60
2022-08-03T09:49:26.170Z,22.81
2022-08-03T09:52:32.823Z,22.84
2022-08-03T09:54:45.100Z,23.00
2022-08-03T09:57:23.431Z,23.20
2022-08-03T10:00:38.597Z,23.40
2022-08-03T10:03:08.375Z,23.72
2022-08-03T10:05:59.717Z,23.59
2022-08-03T10:08:28.547Z,23.47
2022-08-03T10:10:58.750Z,23.37
2022-08-03T10:13:27.237Z,23.79
2022-08-03T10:16:25.205Z,24.04
2022-08-03T10:18:45.118Z,24.30
2022-08-03T10:21:18.265Z,24.53
2022-08-03T10:23:47.947Z,24.23
2022-08-03T10:26:20.454Z,24.47
2022-08-03T10:28:51.293Z,24.73
2022-08-03T10:31:58.760Z,24.96
2022-08-03T10:34:35.290Z,24.86
2022-08-03T10:37:10.149Z,24.84
2022-08-03T10:39:38.523Z,25.13
2022-08-03T10:42:14.460Z,24.99
2022-08-03T10:44:43.952Z,24.93
2022-08-03T10:47:13.039Z,25.06
2022-08-03T10:49:43.446Z,24.67
2022-08-03T10:52:13.634Z,24.77
2022-08-03T10:55:55.327Z,24.63
2022-08-03T10:59:12.332Z,24.60
2022-08-03T11:01:59.945Z,24.62
2022-08-03T11:04:29.934Z,24.47
2022-08-03T11:07:26.931Z,24.45
2022-08-03T11:09:56.352Z,24.69
2022-08-03T11:16:22.371Z,25.80
2022-08-03T11:18:58.571Z,25.75
2022-08-03T11:22:02.895Z,25.74
2022-08-03T11:25:04.611Z,26.00
2022-08-03T11:27:34.545Z,25.90
2022-08-03T11:30:07.871Z,25.94
2022-08-03T11:33:01.884Z,26.05
2022-08-03T11:35:33.889Z,26.18
2022-08-03T11:38:14.449Z,26.01
2022-08-03T11:40:46.269Z,26.00
2022-08-03T11:43:46.394Z,26.04
2022-08-03T11:46:28.508Z,26.11
2022-08-03T11:49:09.754Z,25.97
2022-08-03T11:52:29.050Z,25.92
2022-08-03T11:55:03.825Z,25.88
2022-08-03T11:59:15.143Z,25.93
2022-08-03T12:00:48.861Z,25.93
2022-08-03T12:03:18.364Z,25.79
2022-08-03T12:05:52.222Z,25.90
2022-08-03T12:08:32.168Z,25.87
2022-08-03T12:11:02.342Z,25.78
2022-08-03T12:14:44.926Z,25.83
2022-08-03T12:16:30.893Z,25.78
2022-08-03T12:19:00.451Z,25.91
2022-08-03T12:21:29.696Z,26.22
2022-08-03T12:24:00.409Z,26.11
2022-08-03T12:26:29.399Z,26.31
2022-08-03T12:28:59.192Z,26.62
2022-08-03T12:31:27.582Z,26.62
2022-08-03T12:33:59.049Z,26.67
2022-08-03T12:36:27.946Z,26.44
2022-08-03T12:38:57.978Z,26.49
2022-08-03T12:41:32.017Z,26.65
2022-08-03T12:44:03.385Z,26.94
2022-08-03T12:46:33.310Z,27.29
2022-08-03T12:49:04.134Z,27.29
2022-08-03T12:51:34.257Z,27.03
2022-08-03T12:54:03.149Z,27.13
2022-08-03T12:56:31.791Z,27.12
2022-08-03T12:59:01.304Z,27.12
2022-08-03T13:01:38.513Z,27.23
2022-08-03T13:04:33.316Z,27.23
2022-08-03T13:07:03.539Z,27.25
2022-08-03T13:09:42.681Z,27.00
2022-08-03T13:12:12.523Z,27.10
2022-08-03T13:14:42.408Z,26.88
2022-08-03T13:17:11.680Z,27.08
2022-08-03T13:19:41.327Z,27.06
2022-08-03T13:22:13.557Z,27.23
2022-08-03T13:24:42.076Z,27.38
2022-08-03T13:28:04.705Z,27.35
2022-08-03T13:30:00.430Z,27.27
2022-08-03T13:32:28.501Z,27.34
2022-08-03T13:35:37.283Z,27.46
2022-08-03T13:38:05.574Z,27.27
2022-08-03T13:40:41.533Z,27.25
2022-08-03T13:43:10.149Z,27.38
2022-08-03T13:45:40.171Z,27.35
2022-08-03T13:51:58.159Z,27.37
2022-08-03T13:54:30.985Z,27.21
2022-08-03T14:00:52.993Z,26.97
2022-08-03T14:03:21.380Z,27.02
2022-08-03T14:05:49.560Z,27.17
2022-08-03T14:08:18.285Z,27.26
2022-08-03T14:10:46.794Z,27.31
2022-08-03T14:13:18.031Z,27.27
2022-08-03T14:20:37.386Z,27.05
2022-08-03T14:23:04.439Z,27.10
2022-08-03T14:25:43.001Z,27.08
2022-08-03T14:28:37.764Z,27.07
2022-08-03T14:31:08.422Z,26.91
2022-08-03T14:33:54.740Z,27.02
2022-08-03T14:40:56.638Z,27.07
2022-08-03T14:43:34.078Z,27.07
2022-08-03T14:46:02.736Z,27.04
2022-08-03T14:54:50.547Z,27.05
2022-08-03T14:57:21.666Z,27.14
2022-08-03T14:59:56.317Z,27.15
2022-08-03T15:02:25.835Z,27.05
2022-08-03T15:04:54.285Z,27.12
2022-08-03T15:07:22.822Z,27.19
2022-08-03T15:09:51.182Z,27.06
2022-08-03T15:12:19.658Z,26.99
2022-08-03T15:14:49.528Z,27.16
2022-08-03T15:17:18.260Z,27.22
2022-08-03T15:20:03.403Z,27.15
2022-08-03T15:22:35.869Z,27.09
2022-08-03T15:26:02.504Z,27.03
2022-08-03T15:28:03.540Z,27.12
2022-08-03T15:30:37.086Z,27.26
2022-08-03T15:33:07.454Z,27.17
2022-08-03T15:35:35.797Z,27.15
2022-08-03T15:38:09.016Z,27.16
2022-08-03T15:41:03.244Z,27.12
2022-08-03T15:43:40.858Z,27.13
2022-08-03T15:46:29.252Z,27.05
2022-08-03T15:48:58.113Z,27.11
2022-08-03T15:51:30.110Z,27.05
2022-08-03T15:54:00.468Z,27.03
2022-08-03T15:56:29.296Z,27.08
2022-08-03T15:59:12.960Z,27.09
2022-08-03T16:01:46.053Z,27.17
2022-08-03T16:04:16.768Z,27.15
2022-08-03T16:06:45.059Z,27.17
2022-08-03T16:09:23.508Z,27.07
2022-08-03T16:12:03.141Z,27.04
2022-08-03T16:14:43.379Z,27.04
2022-08-03T16:17:22.944Z,26.91
2022-08-03T16:19:54.743Z,26.91
2022-08-03T16:22:24.073Z,26.96
2022-08-03T16:24:53.170Z,27.02
2022-08-03T16:27:37.062Z,27.00
2022-08-03T16:30:12.931Z,27.05
2022-08-03T16:32:42.758Z,27.06
2022-08-03T16:35:19.866Z,27.32
2022-08-03T16:37:56.909Z,27.48
2022-08-03T16:40:26.066Z,27.43
2022-08-03T16:42:54.402Z,27.45
2022-08-03T16:45:25.621Z,27.17
2022-08-03T16:48:05.703Z,27.36
2022-08-03T16:50:35.460Z,27.25
2022-08-03T16:53:08.852Z,27.36
2022-08-03T16:55:52.039Z,27.48
2022-08-03T16:58:34.742Z,27.49
2022-08-03T17:01:22.265Z,27.27
2022-08-03T17:04:13.518Z,27.15
2022-08-03T17:06:47.118Z,27.32
2022-08-03T17:09:23.302Z,27.23
2022-08-03T17:11:52.384Z,27.22
2022-08-03T17:14:28.272Z,27.21
2022-08-03T17:17:01.621Z,27.00
2022-08-03T17:19:35.102Z,27.01
2022-08-03T17:22:20.502Z,27.07
2022-08-03T17:24:54.784Z,27.03
2022-08-03T17:28:50.424Z,27.05
2022-08-03T17:30:25.189Z,26.88
2022-08-03T17:32:57.536Z,26.84
2022-08-03T17:35:36.795Z,26.96
2022-08-03T17:38:12.104Z,26.75
2022-08-03T17:40:47.901Z,26.73
2022-08-03T17:44:12.872Z,26.79
2022-08-03T17:46:11.152Z,26.71
2022-08-03T17:48:41.981Z,26.73
2022-08-03T17:51:17.907Z,26.77
2022-08-03T17:53:55.179Z,26.48
2022-08-03T17:56:42.531Z,26.61
2022-08-03T17:59:50.669Z,26.47
2022-08-03T18:06:11.747Z,26.41
2022-08-03T18:08:28.934Z,26.36
2022-08-03T18:11:03.576Z,26.36
2022-08-03T18:13:59.442Z,26.05
2022-08-03T18:16:34.532Z,26.06
2022-08-03T18:19:09.274Z,25.76
2022-08-03T18:22:03.366Z,25.90
2022-08-03T18:24:30.211Z,25.90
2022-08-03T18:27:03.149Z,25.91
2022-08-03T18:29:34.195Z,25.95
2022-08-03T18:32:12.973Z,25.92
2022-08-03T18:37:52.181Z,25.83
2022-08-03T18:40:25.200Z,25.60
2022-08-03T18:42:57.242Z,25.50
2022-08-03T18:45:55.649Z,25.41
2022-08-03T18:48:26.982Z,25.50
2022-08-03T18:51:03.243Z,25.34
2022-08-03T18:54:01.846Z,25.30
2022-08-03T18:56:44.102Z,25.36
2022-08-03T18:59:29.998Z,25.27
2022-08-03T19:02:09.195Z,25.34
2022-08-03T19:04:45.807Z,25.16
2022-08-03T19:07:23.350Z,25.07
2022-08-03T19:09:55.587Z,24.92
2022-08-03T19:12:39.555Z,25.05
2022-08-03T19:15:12.661Z,25.01
2022-08-03T19:17:53.033Z,24.97
2022-08-03T19:20:26.343Z,24.93
2022-08-03T19:22:57.186Z,24.87
2022-08-03T19:25:34.743Z,24.45
2022-08-03T19:28:08.579Z,24.66
2022-08-03T19:30:40.721Z,24.64
2022-08-03T19:33:18.487Z,24.51
2022-08-03T19:36:15.280Z,24.41
2022-08-03T19:39:12.835Z,24.38
2022-08-03T19:41:51.433Z,24.24
2022-08-03T19:44:31.213Z,24.13
2022-08-03T19:47:10.030Z,24.23
2022-08-03T19:50:06.302Z,24.23
2022-08-03T19:52:31.657Z,24.24
2022-08-03T19:55:06.320Z,23.99
2022-08-03T19:57:36.857Z,24.13
2022-08-03T20:00:10.423Z,24.19
2022-08-03T20:02:39.880Z,24.19
2022-08-03T20:05:11.987Z,24.13
2022-08-03T20:07:48.058Z,24.09
2022-08-03T20:10:18.470Z,24.07
2022-08-03T20:12:48.570Z,24.00
2022-08-03T20:15:31.156Z,24.02
2022-08-03T20:18:00.551Z,24.02
2022-08-03T20:20:32.213Z,23.99
2022-08-03T20:23:06.789Z,23.84
2022-08-03T20:25:57.413Z,23.72
2022-08-03T20:28:34.026Z,23.78
2022-08-03T20:31:06.042Z,23.54
2022-08-03T20:33:46.065Z,23.68
2022-08-03T20:36:17.802Z,23.67
2022-08-03T20:42:28.792Z,23.64
2022-08-03T20:45:06.060Z,23.59
2022-08-03T20:47:50.906Z,23.44
2022-08-03T20:50:22.450Z,23.23
2022-08-03T20:52:58.567Z,23.40
2022-08-03T20:58:20.573Z,23.39
2022-08-03T21:00:53.371Z,23.37
2022-08-03T21:03:24.188Z,23.31
2022-08-03T21:06:14.905Z,23.33
2022-08-03T21:08:48.234Z,23.32
2022-08-03T21:11:19.145Z,23.28
2022-08-03T21:12:56.490Z,26.46
2022-08-03T21:12:58.523Z,25.85
2022-08-03T21:13:13.763Z,23.62
2022-08-03T21:13:13.848Z,23.43
2022-08-03T21:13:53.126Z,23.26
2022-08-03T21:16:27.167Z,23.21
2022-08-03T21:19:00.474Z,23.18
2022-08-03T21:21:32.161Z,23.12
2022-08-03T21:24:04.333Z,23.08
2022-08-03T21:26:34.614Z,23.10
2022-08-03T21:29:02.978Z,23.07
2022-08-03T21:31:31.183Z,22.99
2022-08-03T21:34:03.202Z,22.97
2022-08-03T21:36:33.377Z,22.97
2022-08-03T21:39:02.210Z,22.85
2022-08-03T21:41:33.977Z,22.88
2022-08-03T21:44:04.012Z,22.75
2022-08-03T21:46:36.824Z,22.79
2022-08-03T21:50:06.893Z,22.74
2022-08-03T21:52:05.087Z,22.74
2022-08-03T21:54:36.308Z,22.75
2022-08-03T21:57:06.958Z,22.66
2022-08-03T21:59:38.450Z,22.60
2022-08-03T22:02:20.058Z,22.63
2022-08-03T22:04:57.060Z,22.61
2022-08-03T22:07:27.454Z,22.54
2022-08-03T22:09:56.707Z,22.50
2022-08-03T22:12:27.211Z,22.53
2022-08-03T22:15:01.098Z,22.47
2022-08-03T22:17:55.571Z,22.46
2022-08-03T22:20:22.737Z,22.41
2022-08-03T22:22:57.291Z,22.39
2022-08-03T22:25:29.914Z,22.38
2022-08-03T22:27:59.626Z,22.39
2022-08-03T22:30:28.361Z,22.35
2022-08-03T22:32:58.021Z,22.29
2022-08-03T22:35:28.697Z,22.28
2022-08-03T22:37:58.379Z,22.26
2022-08-03T22:40:29.276Z,22.19
2022-08-03T22:42:58.554Z,22.21
2022-08-03T22:46:07.385Z,22.18
2022-08-03T22:48:22.804Z,22.21
2022-08-03T22:50:52.803Z,22.14
2022-08-03T22:53:26.501Z,22.07
2022-08-03T22:55:57.231Z,22.03
2022-08-03T22:58:25.948Z,21.86
2022-08-03T23:00:58.720Z,21.79
2022-08-03T23:04:00.986Z,21.87
2022-08-03T23:06:28.225Z,21.81
2022-08-03T23:08:56.979Z,21.69
2022-08-03T23:11:26.247Z,21.39
2022-08-03T23:13:57.707Z,21.43
2022-08-03T23:16:28.601Z,21.35
2022-08-03T23:19:13.124Z,21.27
2022-08-03T23:22:00.277Z,21.32
2022-08-03T23:24:34.513Z,21.33
2022-08-03T23:27:05.092Z,21.22
2022-08-03T23:29:34.817Z,21.25
2022-08-03T23:32:04.032Z,21.17
2022-08-03T23:34:53.207Z,21.14
2022-08-03T23:37:23.419Z,21.15
2022-08-03T23:39:53.741Z,21.11
2022-08-03T23:42:24.282Z,21.01
2022-08-03T23:44:56.538Z,20.98
2022-08-03T23:47:46.292Z,20.81
2022-08-03T23:50:16.585Z,20.85
2022-08-03T23:53:12.415Z,20.76
2022-08-03T23:55:54.311Z,20.81
2022-08-03T23:58:47.117Z,20.79
